createdAt,value
2023-01-28T00:01:44.073Z,99.90
2023-01-28T00:04:13.353Z,99.90
2023-01-28T00:06:42.345Z,99.90
2023-01-28T00:09:11.589Z,99.90
2023-01-28T00:11:40.306Z,99.90
2023-01-28T00:14:09.013Z,99.90
2023-01-28T00:16:39.082Z,99.90
2023-01-28T00:19:07.864Z,99.90
2023-01-28T00:21:36.533Z,99.90
2023-01-28T00:24:07.202Z,99.90
2023-01-28T00:26:35.864Z,99.90
2023-01-28T00:29:05.316Z,99.90
2023-01-28T00:31:34.566Z,99.90
2023-01-28T00:34:04.938Z,99.90
2023-01-28T00:36:34.092Z,99.90
2023-01-28T00:39:03.124Z,99.90
2023-01-28T00:41:31.982Z,99.90
2023-01-28T00:44:00.948Z,99.90
2023-01-28T00:46:31.084Z,99.90
2023-01-28T00:48:59.700Z,99.90
2023-01-28T00:51:29.768Z,99.90
2023-01-28T00:53:58.418Z,99.90
2023-01-28T00:56:29.152Z,99.90
2023-01-28T00:58:57.951Z,99.90
2023-01-28T01:01:28.335Z,99.90
2023-01-28T01:04:03.166Z,99.90
2023-01-28T01:06:36.779Z,99.90
2023-01-28T01:09:08.624Z,99.90
2023-01-28T01:11:37.721Z,99.90
2023-01-28T01:14:07.239Z,99.90
2023-01-28T01:16:36.631Z,99.90
2023-01-28T01:19:05.500Z,99.90
2023-01-28T01:21:36.477Z,99.90
2023-01-28T01:24:06.140Z,99.90
2023-01-28T01:26:34.770Z,99.90
2023-01-28T01:29:03.406Z,99.90
2023-01-28T01:31:32.052Z,99.90
2023-01-28T01:34:02.315Z,99.90
2023-01-28T01:36:32.537Z,99.90
2023-01-28T01:39:02.632Z,99.90
2023-01-28T01:41:33.659Z,99.90
2023-01-28T01:44:03.783Z,99.90
2023-01-28T01:46:37.941Z,99.90
2023-01-28T01:49:16.223Z,99.90
2023-01-28T01:51:47.976Z,99.90
2023-01-28T01:54:19.338Z,99.90
2023-01-28T01:56:52.218Z,99.90
2023-01-28T01:59:26.201Z,99.90
2023-01-28T02:01:56.274Z,99.90
2023-01-28T02:04:28.696Z,99.90
2023-01-28T02:06:58.368Z,99.90
2023-01-28T02:09:30.710Z,99.90
2023-01-28T02:12:05.933Z,99.90
2023-01-28T02:14:38.415Z,99.90
2023-01-28T02:17:07.243Z,99.90
2023-01-28T02:19:40.008Z,99.90
2023-01-28T02:22:29.907Z,99.90
2023-01-28T02:25:20.797Z,99.90
2023-01-28T02:28:11.396Z,99.90
2023-01-28T02:30:44.175Z,99.90
2023-01-28T02:33:19.979Z,99.90
2023-01-28T02:35:53.496Z,99.90
2023-01-28T02:38:28.077Z,99.90
2023-01-28T02:41:05.967Z,99.90
2023-01-28T02:43:39.710Z,99.90
2023-01-28T02:46:38.490Z,99.90
2023-01-28T02:49:10.623Z,99.90
2023-01-28T02:51:54.363Z,99.90
2023-01-28T02:54:36.731Z,99.90
2023-01-28T02:57:18.904Z,99.90
2023-01-28T02:59:57.825Z,99.90
2023-01-28T03:02:33.862Z,99.90
2023-01-28T03:05:08.989Z,99.90
2023-01-28T03:07:40.037Z,99.90
2023-01-28T03:10:14.662Z,99.90
2023-01-28T03:13:04.944Z,99.90
2023-01-28T03:16:00.035Z,99.90
2023-01-28T03:18:49.716Z,99.90
2023-01-28T03:21:40.952Z,99.90
2023-01-28T03:24:31.520Z,99.90
2023-01-28T03:27:27.827Z,99.90
2023-01-28T03:30:26.039Z,99.90
2023-01-28T03:33:15.416Z,99.90
2023-01-28T03:36:02.070Z,99.90
2023-01-28T03:38:42.150Z,99.90
2023-01-28T03:41:22.972Z,99.90
2023-01-28T03:43:53.655Z,99.90
2023-01-28T03:46:22.417Z,99.90
2023-01-28T03:48:52.578Z,99.90
2023-01-28T03:51:21.437Z,99.90
2023-01-28T03:53:50.171Z,99.90
2023-01-28T03:56:20.027Z,99.90
2023-01-28T03:58:53.121Z,99.90
2023-01-28T04:01:22.918Z,99.90
2023-01-28T04:03:53.173Z,99.90
2023-01-28T04:06:31.177Z,99.90
2023-01-28T04:09:14.844Z,99.90
2023-01-28T04:11:52.969Z,99.90
2023-01-28T04:14:37.060Z,99.90
2023-01-28T04:17:10.832Z,99.90
2023-01-28T04:19:42.057Z,99.90
2023-01-28T04:22:12.846Z,99.90
2023-01-28T04:24:43.390Z,99.90
2023-01-28T04:27:12.898Z,99.90
2023-01-28T04:29:41.553Z,99.90
2023-01-28T04:32:32.655Z,99.90
2023-01-28T04:35:11.337Z,99.90
2023-01-28T04:38:06.134Z,99.90
2023-01-28T04:40:53.099Z,99.90
2023-01-28T04:43:28.597Z,99.90
2023-01-28T04:46:16.117Z,99.90
2023-01-28T04:48:55.276Z,99.90
2023-01-28T04:51:54.448Z,99.90
2023-01-28T04:54:23.143Z,99.90
2023-01-28T04:56:52.116Z,99.90
2023-01-28T04:59:21.195Z,99.90
2023-01-28T05:01:50.233Z,99.90
2023-01-28T05:04:21.538Z,99.90
2023-01-28T05:06:50.338Z,99.90
2023-01-28T05:09:25.591Z,99.90
2023-01-28T05:11:55.150Z,99.90
2023-01-28T05:14:24.808Z,99.90
2023-01-28T05:17:01.291Z,99.90
2023-01-28T05:19:30.084Z,99.90
2023-01-28T05:21:59.391Z,99.90
2023-01-28T05:24:45.452Z,99.90
2023-01-28T05:27:14.135Z,99.90
2023-01-28T05:29:43.624Z,99.90
2023-01-28T05:32:13.225Z,99.90
2023-01-28T05:34:41.893Z,99.90
2023-01-28T05:37:14.380Z,99.90
2023-01-28T05:39:44.418Z,99.90
2023-01-28T05:42:13.145Z,99.90
2023-01-28T05:44:46.826Z,99.90
2023-01-28T05:47:25.285Z,99.90
2023-01-28T05:50:01.653Z,99.90
2023-01-28T05:52:33.282Z,99.90
2023-01-28T05:55:04.318Z,99.90
2023-01-28T05:57:33.776Z,99.90
2023-01-28T06:00:05.772Z,99.90
2023-01-28T06:02:43.486Z,99.90
2023-01-28T06:05:15.593Z,99.90
2023-01-28T06:07:46.750Z,99.90
2023-01-28T06:10:18.192Z,99.90
2023-01-28T06:12:47.532Z,99.90
2023-01-28T06:15:35.018Z,99.90
2023-01-28T06:18:16.616Z,99.90
2023-01-28T06:20:45.528Z,99.90
2023-01-28T06:23:14.309Z,99.90
2023-01-28T06:25:44.666Z,99.90
2023-01-28T06:28:16.424Z,99.90
2023-01-28T06:30:45.997Z,99.90
2023-01-28T06:33:14.701Z,99.90
2023-01-28T06:35:44.946Z,99.90
2023-01-28T06:38:14.149Z,99.90
2023-01-28T06:40:44.117Z,99.90
2023-01-28T06:43:12.730Z,99.90
2023-01-28T06:45:41.423Z,99.90
2023-01-28T06:48:10.227Z,99.90
2023-01-28T06:50:39.076Z,99.90
2023-01-28T06:53:07.677Z,99.90
2023-01-28T06:55:36.395Z,99.90
2023-01-28T06:58:06.411Z,99.90
2023-01-28T07:00:35.084Z,99.90
2023-01-28T07:03:03.767Z,99.90
2023-01-28T07:05:32.468Z,99.90
2023-01-28T07:08:02.351Z,99.90
2023-01-28T07:10:31.220Z,99.90
2023-01-28T07:12:59.791Z,99.90
2023-01-28T07:15:29.967Z,99.90
2023-01-28T07:17:59.578Z,99.90
2023-01-28T07:20:28.604Z,99.90
2023-01-28T07:22:57.183Z,99.90
2023-01-28T07:25:25.837Z,99.90
2023-01-28T07:27:55.195Z,99.90
2023-01-28T07:30:24.531Z,99.90
2023-01-28T07:32:58.783Z,99.90
2023-01-28T07:35:28.599Z,99.90
2023-01-28T07:37:58.667Z,99.90
2023-01-28T07:40:28.798Z,99.90
2023-01-28T07:42:57.635Z,99.90
2023-01-28T07:45:30.768Z,99.90
2023-01-28T07:48:02.185Z,99.90
2023-01-28T07:50:32.894Z,99.90
2023-01-28T07:53:03.927Z,99.90
2023-01-28T07:55:35.910Z,99.90
2023-01-28T07:58:06.385Z,99.90
2023-01-28T08:00:37.145Z,99.90
2023-01-28T08:03:16.000Z,99.90
2023-01-28T08:05:47.245Z,99.90
2023-01-28T08:08:16.586Z,99.90
2023-01-28T08:10:45.366Z,99.90
2023-01-28T08:13:15.115Z,99.90
2023-01-28T08:15:44.078Z,99.90
2023-01-28T08:18:17.021Z,99.90
2023-01-28T08:20:47.544Z,99.90
2023-01-28T08:23:17.855Z,99.90
2023-01-28T08:25:47.427Z,99.90
2023-01-28T08:28:16.911Z,99.90
2023-01-28T08:30:46.007Z,99.90
2023-01-28T08:33:17.165Z,99.90
2023-01-28T08:35:46.122Z,99.90
2023-01-28T08:38:16.400Z,99.90
2023-01-28T08:40:45.076Z,99.90
2023-01-28T08:43:13.926Z,99.90
2023-01-28T08:45:42.772Z,99.90
2023-01-28T08:48:16.995Z,99.90
2023-01-28T08:50:46.203Z,99.90
2023-01-28T08:53:16.829Z,99.90
2023-01-28T08:55:45.777Z,99.90
2023-01-28T08:58:15.980Z,99.90
2023-01-28T09:00:46.454Z,99.90
2023-01-28T09:03:16.661Z,99.90
2023-01-28T09:05:45.383Z,99.90
2023-01-28T09:08:15.983Z,99.90
2023-01-28T09:10:45.760Z,99.90
2023-01-28T09:13:16.580Z,99.90
2023-01-28T09:15:45.559Z,99.90
2023-01-28T09:18:15.758Z,99.90
2023-01-28T09:20:44.433Z,99.90
2023-01-28T09:23:13.547Z,99.90
2023-01-28T09:25:42.529Z,99.90
2023-01-28T09:28:11.223Z,99.90
2023-01-28T09:30:40.032Z,99.90
2023-01-28T09:33:09.593Z,99.90
2023-01-28T09:35:39.733Z,99.90
2023-01-28T09:38:08.350Z,99.90
2023-01-28T09:40:42.188Z,99.90
2023-01-28T09:43:25.992Z,99.90
2023-01-28T09:45:57.146Z,99.90
2023-01-28T09:48:32.986Z,99.90
2023-01-28T09:51:03.315Z,99.90
2023-01-28T09:53:34.463Z,99.90
2023-01-28T09:56:05.346Z,99.90
2023-01-28T09:58:34.149Z,99.90
2023-01-28T10:01:08.237Z,99.90
2023-01-28T10:03:51.889Z,99.90
2023-01-28T10:06:29.612Z,99.90
2023-01-28T10:09:20.743Z,99.90
2023-01-28T10:12:03.701Z,99.90
2023-01-28T10:14:46.044Z,99.90
2023-01-28T10:17:19.257Z,99.90
2023-01-28T10:19:51.684Z,99.90
2023-01-28T10:22:25.870Z,99.90
2023-01-28T10:25:01.983Z,99.90
2023-01-28T10:27:32.782Z,99.90
2023-01-28T10:30:16.702Z,99.90
2023-01-28T10:32:52.771Z,99.90
2023-01-28T10:35:21.753Z,99.90
2023-01-28T10:38:01.940Z,99.90
2023-01-28T10:40:30.858Z,99.10
2023-01-28T10:42:59.442Z,99.40
2023-01-28T10:45:32.073Z,99.00
2023-01-28T10:48:05.148Z,99.00
2023-01-28T10:50:35.542Z,98.60
2023-01-28T10:53:07.544Z,98.30
2023-01-28T10:55:51.833Z,98.20
2023-01-28T10:58:23.729Z,97.50
2023-01-28T11:00:55.945Z,97.70
2023-01-28T11:03:28.001Z,97.70
2023-01-28T11:05:58.069Z,98.10
2023-01-28T11:08:30.251Z,98.00
2023-01-28T11:10:59.550Z,98.10
2023-01-28T11:13:29.838Z,97.60
2023-01-28T11:16:03.312Z,97.50
2023-01-28T11:18:34.547Z,96.80
2023-01-28T11:21:06.142Z,97.00
2023-01-28T11:23:41.284Z,97.20
2023-01-28T11:26:17.357Z,97.50
2023-01-28T11:28:46.954Z,96.30
2023-01-28T11:31:17.760Z,96.30
2023-01-28T11:33:52.091Z,96.70
2023-01-28T11:36:23.306Z,96.50
2023-01-28T11:38:55.560Z,96.00
2023-01-28T11:41:31.079Z,95.90
2023-01-28T11:44:02.897Z,96.50
2023-01-28T11:46:56.783Z,96.90
2023-01-28T11:49:38.281Z,97.20
2023-01-28T11:52:15.983Z,97.70
2023-01-28T11:54:57.146Z,97.50
2023-01-28T11:57:27.741Z,97.40
2023-01-28T12:00:19.369Z,97.30
2023-01-28T12:02:54.825Z,96.80
2023-01-28T12:05:43.384Z,96.40
2023-01-28T12:08:23.396Z,96.10
2023-01-28T12:11:09.063Z,95.90
2023-01-28T12:14:00.701Z,96.30
2023-01-28T12:16:54.437Z,96.20
2023-01-28T12:19:42.246Z,96.10
2023-01-28T12:22:54.003Z,96.10
2023-01-28T12:25:35.286Z,96.40
2023-01-28T12:28:17.379Z,96.10
2023-01-28T12:31:05.753Z,96.40
2023-01-28T12:34:01.640Z,95.50
2023-01-28T12:36:44.360Z,94.80
2023-01-28T12:39:23.329Z,94.90
2023-01-28T12:41:57.335Z,94.80
2023-01-28T12:44:34.497Z,94.60
2023-01-28T12:47:07.528Z,94.70
2023-01-28T12:49:40.872Z,94.30
2023-01-28T12:52:16.375Z,94.50
2023-01-28T12:54:55.088Z,94.40
2023-01-28T12:57:27.772Z,94.20
2023-01-28T13:00:04.243Z,94.20
2023-01-28T13:02:37.528Z,94.10
2023-01-28T13:05:12.330Z,94.10
2023-01-28T13:07:49.742Z,94.20
2023-01-28T13:10:25.790Z,94.20
2023-01-28T13:12:55.254Z,93.90
2023-01-28T13:15:26.615Z,94.50
2023-01-28T13:17:57.675Z,94.80
2023-01-28T13:20:38.670Z,94.70
2023-01-28T13:23:23.074Z,94.70
2023-01-28T13:25:53.537Z,94.80
2023-01-28T13:28:30.990Z,95.20
2023-01-28T13:31:06.781Z,95.40
2023-01-28T13:33:37.647Z,95.50
2023-01-28T13:36:21.081Z,95.60
2023-01-28T13:39:01.187Z,95.90
2023-01-28T13:41:40.441Z,96.30
2023-01-28T13:44:20.498Z,96.50
2023-01-28T13:46:50.840Z,96.50
2023-01-28T13:49:27.835Z,96.60
2023-01-28T13:52:08.987Z,96.90
2023-01-28T13:54:39.820Z,96.80
2023-01-28T13:58:09.087Z,97.00
2023-01-28T14:00:46.601Z,97.10
2023-01-28T14:03:41.751Z,97.20
2023-01-28T14:06:52.793Z,97.10
2023-01-28T14:09:38.287Z,97.50
2023-01-28T14:12:50.908Z,97.20
2023-01-28T14:15:40.585Z,97.10
2023-01-28T14:18:20.612Z,97.40
2023-01-28T14:20:51.537Z,97.50
2023-01-28T14:23:22.321Z,97.50
2023-01-28T14:26:05.284Z,97.70
2023-01-28T14:28:45.727Z,97.70
2023-01-28T14:31:19.800Z,98.10
2023-01-28T14:33:49.558Z,98.10
2023-01-28T14:36:20.006Z,98.20
2023-01-28T14:38:49.151Z,98.20
2023-01-28T14:41:25.009Z,98.30
2023-01-28T14:43:55.984Z,98.50
2023-01-28T14:46:34.383Z,98.50
2023-01-28T14:49:25.580Z,99.20
2023-01-28T14:52:20.572Z,99.30
2023-01-28T14:55:01.718Z,99.10
2023-01-28T14:57:49.943Z,98.50
2023-01-28T15:00:22.821Z,98.70
2023-01-28T15:02:51.923Z,99.90
2023-01-28T15:05:23.741Z,99.90
2023-01-28T15:07:54.397Z,99.90
2023-01-28T15:10:29.374Z,99.90
2023-01-28T15:13:00.969Z,99.90
2023-01-28T15:15:33.095Z,98.10
2023-01-28T15:18:05.872Z,97.60
2023-01-28T15:20:34.882Z,97.10
2023-01-28T15:23:08.913Z,97.00
2023-01-28T15:25:38.941Z,97.20
2023-01-28T15:28:07.663Z,97.40
2023-01-28T15:30:37.193Z,97.30
2023-01-28T15:33:08.016Z,97.30
2023-01-28T15:35:38.389Z,96.60
2023-01-28T15:38:10.278Z,96.80
2023-01-28T15:40:44.365Z,96.50
2023-01-28T15:43:21.313Z,96.30
2023-01-28T15:45:51.637Z,96.70
2023-01-28T15:48:20.527Z,96.70
2023-01-28T15:50:49.234Z,96.90
2023-01-28T15:53:19.364Z,96.90
2023-01-28T15:55:48.014Z,97.00
2023-01-28T15:58:20.189Z,97.50
2023-01-28T16:00:50.644Z,97.30
2023-01-28T16:03:22.114Z,97.30
2023-01-28T16:06:03.182Z,97.20
2023-01-28T16:08:39.716Z,97.70
2023-01-28T16:11:11.603Z,97.80
2023-01-28T16:13:44.913Z,97.90
2023-01-28T16:16:14.128Z,97.80
2023-01-28T16:18:47.565Z,98.20
2023-01-28T16:21:24.027Z,97.90
2023-01-28T16:24:01.826Z,97.80
2023-01-28T16:26:32.641Z,97.90
2023-01-28T16:29:12.957Z,98.50
2023-01-28T16:31:41.660Z,99.00
2023-01-28T16:34:11.969Z,99.30
2023-01-28T16:36:40.670Z,98.90
2023-01-28T16:39:10.817Z,98.50
2023-01-28T16:41:42.481Z,99.00
2023-01-28T16:44:14.266Z,98.60
2023-01-28T16:46:43.277Z,98.10
2023-01-28T16:49:12.355Z,98.10
2023-01-28T16:51:44.085Z,98.20
2023-01-28T16:54:17.394Z,98.50
2023-01-28T16:56:47.008Z,99.90
2023-01-28T16:59:16.527Z,99.90
2023-01-28T17:01:45.916Z,99.90
2023-01-28T17:04:14.810Z,99.90
2023-01-28T17:06:44.864Z,99.90
2023-01-28T17:09:15.889Z,99.90
2023-01-28T17:11:44.595Z,99.90
2023-01-28T17:14:13.241Z,99.90
2023-01-28T17:16:42.892Z,99.90
2023-01-28T17:19:11.551Z,99.90
2023-01-28T17:21:40.239Z,99.90
2023-01-28T17:24:09.720Z,99.90
2023-01-28T17:26:39.957Z,99.90
2023-01-28T17:29:09.395Z,99.90
2023-01-28T17:31:38.308Z,99.90
2023-01-28T17:36:36.934Z,99.90
2023-01-28T17:39:07.606Z,99.90
2023-01-28T17:41:36.323Z,99.90
2023-01-28T17:44:07.024Z,99.90
2023-01-28T17:46:35.707Z,99.90
2023-01-28T17:49:04.785Z,99.90
2023-01-28T17:51:33.492Z,99.90
2023-01-28T17:54:02.104Z,99.90
2023-01-28T17:56:32.114Z,99.90
2023-01-28T17:59:03.943Z,99.90
2023-01-28T18:01:37.316Z,99.90
2023-01-28T18:04:06.385Z,99.90
2023-01-28T18:06:36.155Z,99.90
2023-01-28T18:09:07.262Z,99.90
2023-01-28T18:11:36.112Z,99.90
2023-01-28T18:14:04.721Z,99.90
2023-01-28T18:16:34.780Z,99.90
2023-01-28T18:19:03.413Z,99.90
2023-01-28T18:21:46.469Z,99.90
2023-01-28T18:24:20.651Z,99.90
2023-01-28T18:26:49.404Z,99.90
2023-01-28T18:29:20.887Z,99.90
2023-01-28T18:31:52.108Z,99.90
2023-01-28T18:34:20.961Z,99.90
2023-01-28T18:36:49.959Z,99.90
2023-01-28T18:39:19.141Z,99.90
2023-01-28T18:41:47.871Z,99.90
2023-01-28T18:44:17.424Z,99.90
2023-01-28T18:46:46.111Z,99.90
2023-01-28T18:49:16.427Z,99.90
2023-01-28T18:51:45.233Z,99.90
2023-01-28T18:54:16.163Z,99.90
2023-01-28T18:56:45.556Z,99.90
2023-01-28T18:59:15.670Z,99.90
2023-01-28T19:01:47.801Z,99.90
2023-01-28T19:04:19.270Z,99.90
2023-01-28T19:06:48.457Z,99.90
2023-01-28T19:09:18.643Z,99.90
2023-01-28T19:11:48.524Z,99.90
2023-01-28T19:14:17.335Z,99.90
2023-01-28T19:16:46.282Z,99.90
2023-01-28T19:19:14.903Z,99.90
2023-01-28T19:21:45.015Z,99.90
2023-01-28T19:24:15.195Z,99.90
2023-01-28T19:26:45.351Z,99.90
2023-01-28T19:29:16.335Z,99.90
2023-01-28T19:31:49.189Z,99.90
2023-01-28T19:34:18.073Z,99.90
2023-01-28T19:36:48.212Z,99.90
2023-01-28T19:39:17.343Z,99.90
2023-01-28T19:41:46.085Z,99.90
2023-01-28T19:44:14.724Z,99.90
2023-01-28T19:46:43.487Z,99.90
2023-01-28T19:49:13.204Z,99.90
2023-01-28T19:51:41.750Z,99.90
2023-01-28T19:54:11.809Z,99.90
2023-01-28T19:56:40.566Z,99.90
2023-01-28T19:59:09.190Z,99.90
2023-01-28T20:01:37.854Z,99.90
2023-01-28T20:04:06.491Z,99.90
2023-01-28T20:06:35.881Z,99.90
2023-01-28T20:09:07.838Z,99.90
2023-01-28T20:11:38.260Z,99.90
2023-01-28T20:14:07.077Z,99.90
2023-01-28T20:16:37.136Z,99.90
2023-01-28T20:19:08.216Z,99.90
2023-01-28T20:21:37.268Z,99.90
2023-01-28T20:24:06.716Z,99.90
2023-01-28T20:26:38.324Z,99.90
2023-01-28T20:29:09.606Z,99.90
2023-01-28T20:31:40.814Z,99.90
2023-01-28T20:34:13.768Z,99.90
2023-01-28T20:36:42.871Z,99.90
2023-01-28T20:39:12.069Z,99.90
2023-01-28T20:41:42.191Z,99.90
2023-01-28T20:44:10.807Z,99.90
2023-01-28T20:46:39.405Z,99.90
2023-01-28T20:49:08.297Z,99.90
2023-01-28T20:51:38.407Z,99.90
2023-01-28T20:54:07.081Z,99.90
2023-01-28T20:56:35.713Z,99.90
2023-01-28T20:59:07.629Z,99.90
2023-01-28T21:01:37.445Z,99.90
2023-01-28T21:04:08.506Z,99.90
2023-01-28T21:06:40.017Z,99.90
2023-01-28T21:09:09.210Z,99.90
2023-01-28T21:11:37.817Z,99.90
2023-01-28T21:14:07.824Z,99.90
2023-01-28T21:16:41.235Z,99.90
2023-01-28T21:19:11.031Z,99.90
2023-01-28T21:21:42.686Z,99.90
2023-01-28T21:24:12.637Z,99.90
2023-01-28T21:26:41.358Z,99.90
2023-01-28T21:29:11.556Z,99.90
2023-01-28T21:31:40.183Z,99.90
2023-01-28T21:34:09.300Z,99.90
2023-01-28T21:36:38.110Z,99.90
2023-01-28T21:39:06.900Z,99.90
2023-01-28T21:41:35.502Z,99.90
2023-01-28T21:44:04.128Z,99.90
2023-01-28T21:46:35.051Z,99.90
2023-01-28T21:49:05.510Z,99.90
2023-01-28T21:51:39.621Z,99.90
2023-01-28T21:54:11.501Z,99.90
2023-01-28T21:56:40.243Z,99.90
2023-01-28T21:59:26.128Z,99.90
2023-01-28T22:01:56.545Z,99.90
2023-01-28T22:04:26.013Z,99.90
2023-01-28T22:06:55.745Z,99.90
2023-01-28T22:09:24.912Z,99.90
2023-01-28T22:11:53.549Z,99.90
2023-01-28T22:14:22.557Z,99.90
2023-01-28T22:16:51.214Z,99.90
2023-01-28T22:19:21.403Z,99.90
2023-01-28T22:21:50.070Z,99.90
2023-01-28T22:24:20.221Z,99.90
2023-01-28T22:26:49.228Z,99.90
2023-01-28T22:29:19.193Z,99.90
2023-01-28T22:31:48.303Z,99.90
2023-01-28T22:34:17.812Z,99.90
2023-01-28T22:36:48.241Z,99.90
2023-01-28T22:39:18.100Z,99.90
2023-01-28T22:41:47.122Z,99.90
2023-01-28T22:44:16.261Z,99.90
2023-01-28T22:46:45.004Z,99.90
2023-01-28T22:49:15.150Z,99.90
2023-01-28T22:51:44.191Z,99.90
2023-01-28T22:54:15.194Z,99.90
2023-01-28T22:56:43.957Z,99.90
2023-01-28T22:59:13.084Z,99.90
2023-01-28T23:01:41.827Z,99.90
2023-01-28T23:04:10.494Z,99.90
2023-01-28T23:06:39.105Z,99.90
2023-01-28T23:09:07.757Z,99.90
2023-01-28T23:11:38.016Z,99.90
2023-01-28T23:14:24.100Z,99.90
2023-01-28T23:17:10.530Z,99.90
2023-01-28T23:19:56.400Z,99.90
2023-01-28T23:22:46.765Z,99.90
2023-01-28T23:25:16.039Z,99.90
2023-01-28T23:27:46.280Z,99.90
2023-01-28T23:30:16.011Z,99.90
2023-01-28T23:32:48.516Z,99.90
2023-01-28T23:35:19.227Z,99.90
2023-01-28T23:37:47.984Z,99.90
2023-01-28T23:40:17.354Z,99.90
2023-01-28T23:42:51.390Z,99.90
2023-01-28T23:45:20.605Z,99.90
2023-01-28T23:47:49.735Z,99.90
2023-01-28T23:50:19.323Z,99.90
2023-01-28T23:52:48.073Z,99.90
2023-01-28T23:55:17.172Z,99.90
2023-01-28T23:57:45.707Z,99.90
